Time;durP1;ratioP1;P1;durP2;ratioP2;P2;SDS_P1;SDS_P2;PMS_P1;PMS_P2;Temp;Humidity;BMP_temperature;BMP_pressure;BME280_temperature;BME280_humidity;BME280_pressure;Samples;Min_cycle;Max_cycle;Signal;HPM_P1;HPM_P2
2023/01/04 00:01:02;;;;;;;9.97;5.00;;;;;;;;;;5040497;28;20210;-76
2023/01/04 00:03:29;;;;;;;6.73;3.70;;;;;;;;;;5042285;28;20181;-73
2023/01/04 00:05:57;;;;;;;7.80;4.37;;;;;;;;;;5034637;28;20200;-72
2023/01/04 00:08:23;;;;;;;15.93;7.40;;;;;;;;;;5035399;28;20210;-72
2023/01/04 00:10:49;;;;;;;10.23;4.87;;;;;;;;;;5036069;28;20244;-72
2023/01/04 00:13:15;;;;;;;9.57;4.50;;;;;;;;;;5037624;28;20182;-71
2023/01/04 00:15:41;;;;;;;7.33;4.43;;;;;;;;;;5040371;28;20217;-71
2023/01/04 00:18:08;;;;;;;8.73;4.93;;;;;;;;;;5039001;28;20226;-71
2023/01/04 00:20:34;;;;;;;5.97;4.73;;;;;;;;;;5036056;28;21974;-71
2023/01/04 00:23:00;;;;;;;8.07;5.00;;;;;;;;;;5039605;28;20178;-72
2023/01/04 00:25:27;;;;;;;10.10;5.50;;;;;;;;;;5025852;28;20206;-72
2023/01/04 00:27:53;;;;;;;7.90;5.23;;;;;;;;;;5038989;28;20571;-72
2023/01/04 00:30:19;;;;;;;7.73;4.60;;;;;;;;;;5039872;28;20265;-72
2023/01/04 00:32:45;;;;;;;6.00;4.80;;;;;;;;;;5027497;28;20276;-72
2023/01/04 00:35:11;;;;;;;7.07;5.07;;;;;;;;;;5038859;28;20195;-72
2023/01/04 00:37:38;;;;;;;7.37;5.47;;;;;;;;;;5047683;28;20608;-72
2023/01/04 00:40:04;;;;;;;8.73;5.87;;;;;;;;;;5049728;28;20252;-72
2023/01/04 00:42:31;;;;;;;9.47;7.10;;;;;;;;;;5030251;28;20188;-72
2023/01/04 00:44:57;;;;;;;12.77;8.90;;;;;;;;;;5041812;28;20205;-73
2023/01/04 00:47:23;;;;;;;11.77;9.13;;;;;;;;;;5040831;28;20270;-73
2023/01/04 00:49:49;;;;;;;13.50;9.73;;;;;;;;;;5044243;28;20806;-72
2023/01/04 00:52:16;;;;;;;21.23;13.33;;;;;;;;;;5045628;28;20182;-72
2023/01/04 00:54:42;;;;;;;14.90;10.87;;;;;;;;;;5045365;28;20209;-72
2023/01/04 00:57:08;;;;;;;13.87;10.50;;;;;;;;;;5041650;28;20178;-72
2023/01/04 00:59:34;;;;;;;15.70;11.13;;;;;;;;;;5041869;28;20189;-73
2023/01/04 01:02:00;;;;;;;14.57;11.30;;;;;;;;;;5040432;28;20186;-72
2023/01/04 01:04:27;;;;;;;14.60;10.90;;;;;;;;;;5041275;28;20279;-72
2023/01/04 01:06:53;;;;;;;13.50;10.47;;;;;;;;;;5038393;28;20206;-72
2023/01/04 01:09:23;;;;;;;12.37;10.23;;;;;;;;;;5040202;28;20178;-72
2023/01/04 01:11:49;;;;;;;12.40;10.60;;;;;;;;;;5042467;28;20205;-72
2023/01/04 01:14:17;;;;;;;15.07;11.60;;;;;;;;;;5042538;28;20546;-72
2023/01/04 01:16:43;;;;;;;19.57;12.33;;;;;;;;;;5040632;28;20204;-72
2023/01/04 01:19:09;;;;;;;16.40;11.53;;;;;;;;;;5039358;28;20299;-72
2023/01/04 01:21:36;;;;;;;15.93;11.00;;;;;;;;;;5044422;28;20230;-72
2023/01/04 01:24:03;;;;;;;15.70;11.43;;;;;;;;;;5042784;28;20194;-72
2023/01/04 01:26:29;;;;;;;14.73;10.43;;;;;;;;;;5042200;28;20213;-72
2023/01/04 01:28:55;;;;;;;11.77;10.07;;;;;;;;;;5043950;28;20224;-72
2023/01/04 01:31:23;;;;;;;12.73;10.33;;;;;;;;;;5036772;28;20182;-73
2023/01/04 01:33:50;;;;;;;13.73;10.63;;;;;;;;;;5037975;28;20186;-72
2023/01/04 01:36:17;;;;;;;11.67;9.13;;;;;;;;;;5041150;28;20193;-72
2023/01/04 01:38:44;;;;;;;11.70;9.63;;;;;;;;;;5046411;28;20178;-72
2023/01/04 01:41:30;;;;;;;13.40;9.77;;;;;;;;;;5041631;28;20181;-73
2023/01/04 01:44:26;;;;;;;10.57;9.03;;;;;;;;;;5042128;28;20288;-72
2023/01/04 01:46:53;;;;;;;13.87;9.80;;;;;;;;;;5027515;28;20267;-74
2023/01/04 01:49:24;;;;;;;11.77;8.80;;;;;;;;;;5040571;28;20210;-73
2023/01/04 01:51:51;;;;;;;12.43;9.30;;;;;;;;;;5050762;28;20178;-71
2023/01/04 01:54:20;;;;;;;12.60;9.10;;;;;;;;;;5048510;28;20174;-71
2023/01/04 01:56:47;;;;;;;11.17;8.87;;;;;;;;;;5051235;28;20244;-72
2023/01/04 01:59:14;;;;;;;10.97;8.67;;;;;;;;;;5052638;28;20189;-71
2023/01/04 02:01:40;;;;;;;14.60;9.63;;;;;;;;;;5049948;28;20205;-72
2023/01/04 02:04:07;;;;;;;13.20;9.17;;;;;;;;;;5047513;28;20192;-71
2023/01/04 02:06:36;;;;;;;12.20;9.67;;;;;;;;;;5042251;28;20217;-71
2023/01/04 02:09:02;;;;;;;12.10;9.80;;;;;;;;;;5039645;28;20186;-71
2023/01/04 02:11:28;;;;;;;12.23;9.67;;;14.70;99.90;;;;;;5040053;28;20174;-71
2023/01/04 02:17:16;;;;;;;10.30;8.43;;;8.00;99.90;;;;;;5040340;28;20244;-71
2023/01/04 02:20:01;;;;;;;12.90;8.70;;;;;;;;;;4996036;28;20187;-71
2023/01/04 02:22:46;;;;;;;9.90;7.97;;;;;;;;;;5038818;28;20212;-71
2023/01/04 02:25:35;;;;;;;11.27;8.50;;;8.00;99.90;;;;;;5044727;28;20217;-72
2023/01/04 02:28:14;;;;;;;14.23;9.10;;;8.00;99.90;;;;;;5043167;28;20217;-71
2023/01/04 02:30:43;;;;;;;13.37;9.80;;;;;;;;;;5040287;28;20227;-71
2023/01/04 02:33:26;;;;;;;13.17;8.93;;;8.00;99.90;;;;;;5041070;28;20178;-71
2023/01/04 02:36:10;;;;;;;11.93;9.33;;;8.00;99.90;;;;;;5040762;28;20311;-71
2023/01/04 02:39:13;;;;;;;18.37;11.17;;;8.00;99.90;;;;;;5040904;28;20190;-71
2023/01/04 02:41:51;;;;;;;11.27;9.70;;;8.00;99.90;;;;;;5025649;28;20212;-71
2023/01/04 02:50:30;;;;;;;12.33;9.67;;;7.90;99.90;;;;;;5046656;28;20198;-72
2023/01/04 02:52:59;;;;;;;10.37;9.03;;;8.00;99.90;;;;;;5047457;28;20181;-71
2023/01/04 02:55:52;;;;;;;12.60;9.67;;;8.00;99.90;;;;;;5058943;28;20741;-71
2023/01/04 02:58:50;;;;;;;12.07;8.67;;;7.90;99.90;;;;;;5052898;28;20190;-71
2023/01/04 03:07:11;;;;;;;11.20;9.30;;;;;;;;;;5049729;28;20604;-71
2023/01/04 03:09:39;;;;;;;12.67;10.17;;;;;;;;;;5037124;28;20179;-71
2023/01/04 03:14:59;;;;;;;11.87;9.87;;;;;;;;;;5046171;28;20206;-71
2023/01/04 03:17:27;;;;;;;14.30;10.87;;;;;;;;;;5039257;28;20186;-71
2023/01/04 03:19:54;;;;;;;13.73;10.43;;;;;;;;;;5020223;28;20213;-72
2023/01/04 03:36:46;;;;;;;13.87;10.77;;;7.80;99.90;;;;;;5050533;28;20221;-71
2023/01/04 03:48:42;;;;;;;11.20;9.57;;;7.80;99.90;;;;;;5020583;28;20338;-71
2023/01/04 03:51:13;;;;;;;11.47;9.20;;;7.80;99.90;;;;;;5039747;28;20257;-71
2023/01/04 03:53:45;;;;;;;12.33;8.93;;;;;;;;;;5041459;28;20185;-71
2023/01/04 03:56:12;;;;;;;11.77;8.30;;;;;;;;;;5041687;28;20682;-72
2023/01/04 03:58:38;;;;;;;9.20;7.10;;;;;;;;;;5041189;28;20189;-72
2023/01/04 04:01:05;;;;;;;8.13;6.67;;;;;;;;;;5045414;28;20182;-71
2023/01/04 04:09:01;;;;;;;7.93;6.23;;;;;;;;;;5039683;28;20196;-71
2023/01/04 04:11:30;;;;;;;6.90;6.13;;;;;;;;;;5044236;28;20270;-71
2023/01/04 04:13:57;;;;;;;6.80;5.60;;;;;;;;;;5044846;28;20181;-71
2023/01/04 04:16:23;;;;;;;7.90;6.07;;;;;;;;;;5069376;23;20225;-73
2023/01/04 04:18:50;;;;;;;8.23;6.50;;;;;;;;;;5062475;28;20662;-73
2023/01/04 04:21:16;;;;;;;9.03;6.13;;;;;;;;;;5062807;28;20215;-73
2023/01/04 04:23:43;;;;;;;7.33;5.83;;;;;;;;;;5060923;28;20181;-73
2023/01/04 04:26:10;;;;;;;7.00;6.10;;;;;;;;;;5044725;28;21877;-73
2023/01/04 04:28:36;;;;;;;7.67;6.00;;;;;;;;;;5040952;28;20251;-73
2023/01/04 04:31:02;;;;;;;8.13;5.80;;;;;;;;;;5037251;28;20187;-74
2023/01/04 04:33:28;;;;;;;6.97;6.00;;;;;;;;;;5042839;28;20779;-75
2023/01/04 04:35:54;;;;;;;10.07;6.97;;;;;;;;;;5035791;28;20585;-75
2023/01/04 04:38:21;;;;;;;10.63;6.93;;;;;;;;;;5042047;28;20656;-73
2023/01/04 04:43:33;;;;;;;11.10;8.23;;;;;;;;;;5041848;28;20186;-74
2023/01/04 04:45:59;;;;;;;13.40;9.87;;;;;;;;;;5037195;28;20241;-73
2023/01/04 04:48:26;;;;;;;12.03;9.53;;;;;;;;;;5031095;28;20781;-72
2023/01/04 04:50:52;;;;;;;15.77;11.57;;;;;;;;;;5035245;28;20667;-72
2023/01/04 04:53:18;;;;;;;14.90;11.20;;;;;;;;;;5035380;28;20184;-72
2023/01/04 04:55:44;;;;;;;17.67;12.00;;;;;;;;;;5041032;28;20205;-74
2023/01/04 04:58:10;;;;;;;16.07;12.07;;;;;;;;;;5036142;28;20183;-73
2023/01/04 05:00:36;;;;;;;17.00;13.13;;;;;;;;;;5034246;28;20231;-73
2023/01/04 05:03:02;;;;;;;20.00;14.53;;;;;;;;;;5042836;28;20174;-73
2023/01/04 05:05:29;;;;;;;19.50;13.80;;;;;;;;;;5042145;28;20677;-73
2023/01/04 05:07:55;;;;;;;21.10;14.30;;;;;;;;;;5024353;28;21088;-73
2023/01/04 05:10:21;;;;;;;23.07;16.10;;;;;;;;;;5044585;28;20186;-72
2023/01/04 05:12:59;;;;;;;22.90;16.47;;;;;;;;;;5042945;28;20763;-73
2023/01/04 05:15:30;;;;;;;24.27;17.33;;;;;;;;;;5040021;28;20248;-73
2023/01/04 05:17:56;;;;;;;21.27;16.13;;;;;;;;;;5043989;28;20181;-72
2023/01/04 05:20:22;;;;;;;22.90;16.93;;;;;;;;;;5047735;28;21148;-73
2023/01/04 05:22:48;;;;;;;23.17;16.93;;;;;;;;;;5040430;28;20673;-74
2023/01/04 05:25:14;;;;;;;22.00;15.93;;;;;;;;;;5047514;28;20201;-74
2023/01/04 05:27:40;;;;;;;24.00;17.47;;;;;;;;;;5044921;28;20232;-73
2023/01/04 05:32:52;;;;;;;21.30;15.60;;;;;;;;;;5037338;28;20214;-74
2023/01/04 05:35:18;;;;;;;20.17;14.67;;;;;;;;;;5025906;28;20198;-73
2023/01/04 05:37:44;;;;;;;18.77;13.97;;;;;;;;;;5040932;28;20240;-73
2023/01/04 05:40:11;;;;;;;21.03;15.43;;;;;;;;;;5043102;28;20297;-74
2023/01/04 05:42:37;;;;;;;21.30;15.23;;;;;;;;;;5037751;28;20818;-73
2023/01/04 05:45:03;;;;;;;21.77;14.70;;;;;;;;;;5041423;28;20674;-73
2023/01/04 05:47:30;;;;;;;18.37;14.03;;;;;;;;;;5044916;28;20300;-72
2023/01/04 05:49:56;;;;;;;19.63;14.70;;;;;;;;;;5041262;28;20188;-73
2023/01/04 05:52:22;;;;;;;19.00;13.93;;;;;;;;;;5047097;28;20198;-73
2023/01/04 05:54:48;;;;;;;19.30;14.20;;;;;;;;;;5038268;28;20232;-73
2023/01/04 05:57:15;;;;;;;21.40;14.70;;;;;;;;;;5026087;28;20197;-72
2023/01/04 05:59:41;;;;;;;19.33;15.20;;;;;;;;;;5043484;28;20208;-73
2023/01/04 06:02:07;;;;;;;20.53;14.93;;;;;;;;;;5041690;28;20260;-73
2023/01/04 06:04:34;;;;;;;21.70;14.50;;;;;;;;;;5041222;28;20201;-73
2023/01/04 06:07:00;;;;;;;20.53;14.40;;;;;;;;;;5042732;28;20217;-73
2023/01/04 06:09:26;;;;;;;20.80;14.80;;;;;;;;;;5040648;28;20175;-72
2023/01/04 06:11:53;;;;;;;20.37;14.87;;;;;;;;;;5039952;28;20174;-73
2023/01/04 06:14:19;;;;;;;19.83;15.57;;;;;;;;;;5041334;28;20420;-73
2023/01/04 06:16:45;;;;;;;26.03;16.23;;;;;;;;;;5040679;28;20209;-73
2023/01/04 06:19:11;;;;;;;21.57;14.57;;;;;;;;;;5044993;28;20182;-72
2023/01/04 06:21:37;;;;;;;21.40;14.73;;;;;;;;;;5044176;28;20178;-73
2023/01/04 06:24:04;;;;;;;22.77;14.53;;;;;;;;;;5042550;28;20178;-72
2023/01/04 06:26:30;;;;;;;21.43;14.97;;;;;;;;;;5035853;28;20220;-74
2023/01/04 06:28:56;;;;;;;19.97;14.30;;;;;;;;;;5042310;28;20187;-74
2023/01/04 06:31:22;;;;;;;22.27;14.40;;;;;;;;;;5035815;28;20189;-73
2023/01/04 06:33:48;;;;;;;18.53;14.07;;;;;;;;;;5045816;28;20557;-73
2023/01/04 06:36:14;;;;;;;21.50;14.20;;;;;;;;;;5044719;28;20209;-73
2023/01/04 06:38:42;;;;;;;19.17;12.97;;;;;;;;;;5039083;28;20185;-72
2023/01/04 06:41:08;;;;;;;17.77;12.63;;;;;;;;;;5038872;28;20179;-72
2023/01/04 06:43:34;;;;;;;18.17;12.60;;;;;;;;;;5043249;28;20194;-72
2023/01/04 06:46:00;;;;;;;19.17;13.68;;;;;;;;;;5035074;28;20419;-73
2023/01/04 06:48:27;;;;;;;18.07;12.53;;;;;;;;;;5041866;28;20205;-73
2023/01/04 06:50:53;;;;;;;18.20;12.70;;;;;;;;;;5041209;28;20171;-73
2023/01/04 06:53:19;;;;;;;16.93;11.90;;;;;;;;;;5038565;28;20280;-73
2023/01/04 06:55:45;;;;;;;16.37;11.60;;;;;;;;;;5041760;28;20216;-74
2023/01/04 06:58:11;;;;;;;17.37;11.53;;;;;;;;;;5029855;28;20248;-73
2023/01/04 07:00:38;;;;;;;15.23;10.87;;;;;;;;;;5041170;28;20196;-73
2023/01/04 07:03:04;;;;;;;15.10;10.67;;;;;;;;;;5043088;28;20201;-72
2023/01/04 07:05:30;;;;;;;16.13;11.03;;;;;;;;;;5040011;28;20931;-72
2023/01/04 07:07:59;;;;;;;13.50;10.63;;;;;;;;;;5036735;28;20214;-72
2023/01/04 07:10:25;;;;;;;15.33;10.37;;;;;;;;;;5040668;28;20189;-73
2023/01/04 07:12:51;;;;;;;15.10;11.23;;;;;;;;;;5042872;28;20232;-72
2023/01/04 07:15:17;;;;;;;15.40;10.43;;;;;;;;;;5040034;28;20206;-71
2023/01/04 07:17:46;;;;;;;12.73;9.07;;;;;;;;;;5039180;28;20185;-76
2023/01/04 07:20:12;;;;;;;12.83;9.50;;;;;;;;;;5040097;28;20256;-75
2023/01/04 07:22:38;;;;;;;14.93;9.80;;;;;;;;;;5035462;28;20221;-75
2023/01/04 07:25:05;;;;;;;15.03;9.53;;;;;;;;;;5035652;28;20198;-77
2023/01/04 07:27:31;;;;;;;11.93;8.90;;;;;;;;;;5032863;28;20552;-77
2023/01/04 07:29:57;;;;;;;11.33;8.83;;;;;;;;;;5040334;28;20198;-76
2023/01/04 07:32:24;;;;;;;11.57;8.73;;;;;;;;;;5037381;28;20763;-76
2023/01/04 07:34:50;;;;;;;10.60;7.87;;;;;;;;;;5035811;28;20188;-75
2023/01/04 07:37:16;;;;;;;12.27;9.35;;;;;;;;;;5036657;28;21663;-75
2023/01/04 07:39:43;;;;;;;11.17;8.20;;;;;;;;;;5038368;28;20243;-75
2023/01/04 07:42:10;;;;;;;13.47;8.83;;;;;;;;;;5037471;28;20198;-76
2023/01/04 07:44:36;;;;;;;10.90;7.83;;;;;;;;;;5035856;28;20929;-75
2023/01/04 07:47:02;;;;;;;12.40;8.27;;;;;;;;;;5034463;28;20201;-75
2023/01/04 07:49:29;;;;;;;11.30;8.50;;;;;;;;;;5019404;28;20179;-76
2023/01/04 07:51:55;;;;;;;10.83;7.97;;;;;;;;;;5036675;28;20190;-75
2023/01/04 07:54:23;;;;;;;12.03;8.00;;;;;;;;;;5036735;28;20182;-76
2023/01/04 07:56:50;;;;;;;9.97;7.77;;;;;;;;;;5035263;28;20206;-76
2023/01/04 07:59:17;;;;;;;10.83;7.80;;;;;;;;;;5035467;28;20175;-77
2023/01/04 08:01:43;;;;;;;10.27;7.40;;;;;;;;;;5039185;28;20304;-77
2023/01/04 08:04:11;;;;;;;9.83;7.80;;;;;;;;;;5057038;28;22071;-76
2023/01/04 08:06:38;;;;;;;11.63;7.07;;;;;;;;;;5038836;28;20220;-76
2023/01/04 08:09:05;;;;;;;9.53;7.03;;;;;;;;;;5038213;28;20594;-76
2023/01/04 08:11:31;;;;;;;9.93;7.00;;;;;;;;;;5036341;28;20190;-75
2023/01/04 08:13:57;;;;;;;10.27;6.47;;;;;;;;;;5039439;28;20182;-76
2023/01/04 08:16:23;;;;;;;10.10;6.70;;;;;;;;;;5035865;28;20309;-75
2023/01/04 08:18:56;;;;;;;8.47;6.47;;;;;;;;;;5035073;28;20556;-76
2023/01/04 08:21:23;;;;;;;9.13;6.50;;;;;;;;;;5037200;28;20193;-77
2023/01/04 08:23:49;;;;;;;7.93;6.53;;;;;;;;;;5040261;28;20649;-77
2023/01/04 08:26:16;;;;;;;7.33;5.90;;;;;;;;;;5036651;28;20213;-74
2023/01/04 08:28:42;;;;;;;6.73;5.60;;;;;;;;;;5037499;28;20243;-74
2023/01/04 08:31:10;;;;;;;7.73;6.40;;;;;;;;;;5034291;28;20200;-76
2023/01/04 08:33:37;;;;;;;8.03;6.10;;;;;;;;;;5033923;28;20320;-76
2023/01/04 08:36:11;;;;;;;9.03;6.00;;;;;;;;;;5037107;28;20197;-75
2023/01/04 08:38:37;;;;;;;8.20;5.90;;;;;;;;;;5038983;28;20292;-76
2023/01/04 08:41:04;;;;;;;8.77;5.40;;;;;;;;;;5036100;28;20189;-76
2023/01/04 08:43:30;;;;;;;11.10;6.13;;;;;;;;;;5037051;28;20698;-76
2023/01/04 08:45:57;;;;;;;7.90;5.60;;;;;;;;;;5019074;28;20206;-77
2023/01/04 08:48:24;;;;;;;7.43;5.40;;;;;;;;;;5016494;28;20744;-76
2023/01/04 08:50:50;;;;;;;7.73;5.20;;;;;;;;;;5036806;28;20178;-74
2023/01/04 08:53:16;;;;;;;8.80;5.90;;;;;;;;;;5035457;28;20767;-75
2023/01/04 08:55:48;;;;;;;6.07;4.70;;;;;;;;;;5038060;28;20267;-77
2023/01/04 08:58:14;;;;;;;6.67;4.67;;;;;;;;;;5025983;28;20174;-75
2023/01/04 09:00:40;;;;;;;5.73;4.73;;;;;;;;;;5036129;28;20201;-76
2023/01/04 09:03:07;;;;;;;5.93;4.70;;;;;;;;;;5037996;28;20174;-74
2023/01/04 09:05:33;;;;;;;8.60;4.60;;;;;;;;;;5032756;28;20198;-76
2023/01/04 09:07:59;;;;;;;7.07;4.10;;;;;;;;;;5033274;28;20304;-75
2023/01/04 09:10:26;;;;;;;6.77;3.80;;;;;;;;;;5034327;28;20190;-76
2023/01/04 09:12:52;;;;;;;3.97;3.57;;;;;;;;;;5032012;28;20214;-77
2023/01/04 09:15:18;;;;;;;3.90;3.43;;;;;;;;;;5035372;28;20215;-75
2023/01/04 09:17:44;;;;;;;8.40;3.77;;;;;;;;;;5037853;28;20182;-72
2023/01/04 09:20:11;;;;;;;5.53;3.57;;;;;;;;;;5036030;28;20182;-72
2023/01/04 09:22:37;;;;;;;3.70;3.40;;;;;;;;;;5037790;28;20178;-73
2023/01/04 09:25:04;;;;;;;6.23;3.23;;;;;;;;;;5037754;28;20329;-74
2023/01/04 09:27:33;;;;;;;3.80;2.90;;;;;;;;;;5038121;28;20206;-75
2023/01/04 09:29:59;;;;;;;8.20;3.50;;;;;;;;;;5034548;28;20179;-74
2023/01/04 09:32:26;;;;;;;6.17;3.13;;;;;;;;;;5041335;28;20173;-73
2023/01/04 09:34:52;;;;;;;3.30;2.60;;;;;;;;;;5038695;28;20201;-71
2023/01/04 09:37:18;;;;;;;4.13;2.70;;;;;;;;;;5039595;28;20178;-72
2023/01/04 09:39:46;;;;;;;5.33;3.70;;;;;;;;;;5031643;28;20201;-72
2023/01/04 09:42:22;;;;;;;3.60;2.80;;;;;;;;;;5037867;28;20209;-71
2023/01/04 09:44:50;;;;;;;5.30;2.63;;;;;;;;;;5039116;28;20228;-72
2023/01/04 09:47:28;;;;;;;3.30;2.27;;;;;;;;;;5041996;28;20267;-72
2023/01/04 09:49:59;;;;;;;3.33;1.80;;;;;;;;;;5039828;28;20240;-72
2023/01/04 09:52:27;;;;;;;2.53;1.77;;;;;;;;;;5048696;28;20598;-75
2023/01/04 09:54:59;;;;;;;3.47;2.50;;;;;;;;;;5045072;28;20802;-74
2023/01/04 09:57:30;;;;;;;2.87;1.97;;;;;;;;;;5041504;28;20182;-72
2023/01/04 09:59:59;;;;;;;2.90;2.00;;;;;;;;;;5044152;28;20271;-73
2023/01/04 10:02:30;;;;;;;4.17;2.00;;;;;;;;;;5042851;28;20178;-72
2023/01/04 10:04:58;;;;;;;4.40;2.00;;;;;;;;;;5049512;28;20198;-71
2023/01/04 10:07:30;;;;;;;4.97;1.80;;;;;;;;;;5042184;28;20210;-72
2023/01/04 10:09:56;;;;;;;2.50;2.07;;;;;;;;;;5037231;28;20181;-72
2023/01/04 10:12:27;;;;;;;3.43;1.80;;;;;;;;;;5036940;28;20251;-72
2023/01/04 10:14:56;;;;;;;3.43;2.20;;;;;;;;;;5038230;28;20581;-72
2023/01/04 10:17:41;;;;;;;4.30;2.00;;;;;;;;;;5043545;28;20185;-71
2023/01/04 10:20:26;;;;;;;3.67;2.10;;;;;;;;;;5039598;28;20213;-76
2023/01/04 10:22:58;;;;;;;3.43;2.07;;;;;;;;;;5040949;28;20174;-72
2023/01/04 10:25:40;;;;;;;4.83;2.30;;;;;;;;;;5032840;28;20731;-73
2023/01/04 10:28:14;;;;;;;3.33;2.23;;;;;;;;;;5039465;28;20221;-73
2023/01/04 10:30:54;;;;;;;4.33;2.10;;;;;;;;;;5042666;28;20182;-73
2023/01/04 10:33:45;;;;;;;3.43;2.30;;;;;;;;;;5042367;28;20227;-73
2023/01/04 10:36:18;;;;;;;4.33;2.07;;;;;;;;;;5022960;28;20210;-73
2023/01/04 10:38:45;;;;;;;2.53;1.90;;;;;;;;;;5037779;28;20183;-73
2023/01/04 10:41:13;;;;;;;2.53;1.90;;;;;;;;;;5042602;28;20213;-73
2023/01/04 10:43:44;;;;;;;3.33;2.20;;;;;;;;;;5041049;28;20179;-73
2023/01/04 10:46:30;;;;;;;5.10;2.10;;;;;;;;;;5038051;28;20256;-74
2023/01/04 10:49:22;;;;;;;4.20;2.53;;;;;;;;;;5046013;28;20225;-74
2023/01/04 10:51:54;;;;;;;3.60;2.27;;;;;;;;;;5042095;28;20181;-75
2023/01/04 10:54:26;;;;;;;3.30;1.90;;;;;;;;;;5047280;28;20178;-76
2023/01/04 10:56:59;;;;;;;3.70;2.10;;;;;;;;;;5039103;28;20236;-77
2023/01/04 10:59:35;;;;;;;4.40;2.20;;;;;;;;;;5044305;28;20208;-74
2023/01/04 11:02:06;;;;;;;5.17;2.00;;;;;;;;;;5038813;28;20876;-76
2023/01/04 11:04:52;;;;;;;5.73;2.00;;;;;;;;;;5043442;28;20201;-73
2023/01/04 11:07:20;;;;;;;3.23;1.93;;;;;;;;;;5039810;28;20774;-74
2023/01/04 11:09:51;;;;;;;3.40;2.07;;;;;;;;;;5032825;28;20201;-76
2023/01/04 11:12:18;;;;;;;2.93;1.90;;;;;;;;;;5042262;28;20265;-75
2023/01/04 11:14:44;;;;;;;5.47;1.80;;;;;;;;;;5040153;28;21126;-75
2023/01/04 11:17:11;;;;;;;2.83;2.00;;;;;;;;;;5038943;28;20178;-75
2023/01/04 11:19:38;;;;;;;2.47;1.83;;;;;;;;;;5041414;28;20186;-76
2023/01/04 11:22:15;;;;;;;4.70;2.10;;;;;;;;;;5037872;28;20221;-74
2023/01/04 11:24:42;;;;;;;3.53;1.87;;;;;;;;;;5037639;28;20736;-72
2023/01/04 11:27:15;;;;;;;3.83;1.83;;;;;;;;;;5036027;28;20216;-72
2023/01/04 11:29:47;;;;;;;3.60;2.00;;;;;;;;;;5035765;28;20174;-73
2023/01/04 11:32:16;;;;;;;3.13;2.00;;;;;;;;;;5040722;28;20696;-73
2023/01/04 11:34:43;;;;;;;4.87;2.07;;;;;;;;;;5043113;28;20930;-74
2023/01/04 11:37:23;;;;;;;2.93;2.10;;;;;;;;;;5040031;28;20193;-72
2023/01/04 11:39:49;;;;;;;3.07;2.10;;;;;;;;;;5023361;28;20232;-73
2023/01/04 11:42:19;;;;;;;2.67;1.90;;;;;;;;;;5037715;28;20194;-73
2023/01/04 11:44:57;;;;;;;2.47;1.90;;;;;;;;;;5038384;28;20275;-73
2023/01/04 11:47:24;;;;;;;3.43;1.97;;;;;;;;;;5037441;28;20204;-72
2023/01/04 11:49:51;;;;;;;3.20;2.10;;;;;;;;;;5037481;28;20182;-72
2023/01/04 11:52:27;;;;;;;2.10;1.67;;;;;;;;;;5038749;28;20177;-74
2023/01/04 11:54:54;;;;;;;3.83;2.33;;;;;;;;;;5039194;28;20527;-73
2023/01/04 11:57:20;;;;;;;2.40;2.00;;;;;;;;;;5017844;28;20196;-78
2023/01/04 12:00:07;;;;;;;3.93;1.90;;;;;;;;;;5023046;28;20192;-75
2023/01/04 12:02:33;;;;;;;3.27;2.10;;;;;;;;;;5040182;28;20186;-73
2023/01/04 12:05:00;;;;;;;2.50;2.10;;;;;;;;;;5039911;28;20201;-73
2023/01/04 12:07:29;;;;;;;5.33;2.23;;;;;;;;;;5039795;28;20241;-73
2023/01/04 12:09:56;;;;;;;2.77;1.90;;;;;;;;;;5059676;28;20178;-73
2023/01/04 12:12:24;;;;;;;2.60;1.87;;;;;;;;;;5037320;28;20178;-73
2023/01/04 12:14:51;;;;;;;1.70;1.60;;;;;;;;;;5026779;28;20201;-73
2023/01/04 12:17:34;;;;;;;3.10;1.90;;;;;;;;;;5036344;28;20182;-73
2023/01/04 12:20:03;;;;;;;2.47;1.70;;;;;;;;;;5039196;28;20193;-73
2023/01/04 12:22:37;;;;;;;2.73;1.90;;;;;;;;;;5040365;28;20193;-74
2023/01/04 12:25:04;;;;;;;2.17;1.60;;;;;;;;;;5041939;28;20251;-74
2023/01/04 12:27:30;;;;;;;3.47;1.80;;;;;;;;;;5041052;28;20298;-73
2023/01/04 12:29:59;;;;;;;1.97;1.77;;;;;;;;;;5041898;28;20276;-73
2023/01/04 12:32:25;;;;;;;1.90;1.50;;;;;;;;;;5038248;28;20178;-73
2023/01/04 12:34:51;;;;;;;3.20;1.90;;;;;;;;;;5043388;28;20174;-73
2023/01/04 12:37:35;;;;;;;2.73;2.00;;;;;;;;;;5039510;28;20174;-73
2023/01/04 12:40:02;;;;;;;3.80;1.73;;;;;;;;;;5042144;28;20210;-76
2023/01/04 12:42:28;;;;;;;2.50;1.83;;;;;;;;;;5040519;28;20189;-73
2023/01/04 12:44:54;;;;;;;2.37;1.90;;;;;;;;;;5038890;28;20183;-73
2023/01/04 12:50:07;;;;;;;2.03;1.70;;;;;;;;;;5039419;28;20273;-73
2023/01/04 12:52:33;;;;;;;2.53;1.60;;;;;;;;;;5039849;28;20178;-73
2023/01/04 12:55:01;;;;;;;2.43;1.60;;;;;;;;;;5043489;28;20233;-73
2023/01/04 12:57:31;;;;;;;3.47;2.00;;;;;;;;;;5040942;28;20185;-73
2023/01/04 13:00:03;;;;;;;3.07;1.93;;;;;;;;;;5041180;28;20217;-73
2023/01/04 13:02:33;;;;;;;2.47;1.90;;;;;;;;;;5035684;28;20236;-75
2023/01/04 13:05:01;;;;;;;2.37;1.87;;;;;;;;;;5039592;28;20221;-73
2023/01/04 13:07:32;;;;;;;4.43;2.17;;;;;;;;;;5040114;28;20197;-74
2023/01/04 13:10:00;;;;;;;5.07;2.20;;;;;;;;;;5053622;28;20223;-74
2023/01/04 13:12:30;;;;;;;3.67;2.10;;;;;;;;;;5041513;28;20562;-74
2023/01/04 13:15:05;;;;;;;2.93;2.00;;;;;;;;;;5039618;28;20556;-73
2023/01/04 13:17:37;;;;;;;1.70;1.60;;;;;;;;;;5032121;28;20224;-73
2023/01/04 13:20:14;;;;;;;2.10;1.90;;;;;;;;;;5040485;28;20315;-71
2023/01/04 13:22:45;;;;;;;2.33;1.87;;;;;;;;;;5040786;28;20181;-70
2023/01/04 13:25:13;;;;;;;3.40;2.03;;;;;;;;;;5041699;28;20213;-74
2023/01/04 13:27:54;;;;;;;3.13;1.87;;;;;;;;;;5045255;28;20721;-74
2023/01/04 13:30:30;;;;;;;4.17;2.53;;;;;;;;;;5042603;28;20182;-72
2023/01/04 13:32:57;;;;;;;3.87;2.20;;;;;;;;;;5045191;28;20189;-74
2023/01/04 13:35:23;;;;;;;2.93;2.03;;;;;;;;;;5038813;28;20289;-75
2023/01/04 13:37:50;;;;;;;5.03;2.90;;;;;;;;;;5035076;28;20175;-76
2023/01/04 13:40:22;;;;;;;4.63;3.20;;;;;;;;;;5036631;28;20186;-74
2023/01/04 13:42:57;;;;;;;9.43;6.70;;;;;;;;;;5036884;28;20185;-74
2023/01/04 13:45:32;;;;;;;3.80;2.80;;;;;;;;;;5043601;28;20776;-77
2023/01/04 13:48:00;;;;;;;2.97;2.53;;;;;;;;;;5040209;28;20303;-74
2023/01/04 13:50:33;;;;;;;2.47;2.10;;;;;;;;;;5041905;28;20643;-75
2023/01/04 13:52:59;;;;;;;4.17;2.50;;;;;;;;;;5043067;28;20692;-74
2023/01/04 13:55:27;;;;;;;3.03;2.13;;;;;;;;;;5045165;28;20628;-74
2023/01/04 13:58:01;;;;;;;3.67;2.20;;;;;;;;;;5041221;28;20197;-74
2023/01/04 14:00:36;;;;;;;4.13;2.67;;;;;;;;;;5044428;28;20264;-73
2023/01/04 14:03:11;;;;;;;5.13;3.50;;;;;;;;;;5040548;28;20205;-73
2023/01/04 14:05:38;;;;;;;5.37;2.77;;;;;;;;;;5043098;28;20674;-73
2023/01/04 14:08:09;;;;;;;5.37;3.17;;;;;;;;;;5042915;28;20209;-73
2023/01/04 14:10:36;;;;;;;4.33;2.30;;;;;;;;;;5043342;28;20260;-74
2023/01/04 14:13:02;;;;;;;5.50;2.60;;;;;;;;;;5037717;28;20174;-73
2023/01/04 14:15:32;;;;;;;2.77;2.37;;;;;;;;;;5040474;28;20221;-73
2023/01/04 14:17:58;;;;;;;3.63;2.40;;;;;;;;;;5046304;28;20190;-72
2023/01/04 14:20:25;;;;;;;8.90;4.90;;;;;;;;;;5046025;28;20247;-72
2023/01/04 14:22:52;;;;;;;5.03;2.50;;;;;;;;;;5041793;28;20247;-72
2023/01/04 14:25:33;;;;;;;3.87;2.93;;;;;;;;;;5046257;28;20226;-75
2023/01/04 14:28:18;;;;;;;3.83;2.37;;;;;;;;;;5040982;28;20220;-72
2023/01/04 14:30:52;;;;;;;4.97;2.80;;;;;;;;;;5043424;28;20760;-72
2023/01/04 14:33:19;;;;;;;2.70;2.23;;;;;;;;;;5046020;28;20174;-72
2023/01/04 14:35:45;;;;;;;6.27;3.47;;;;;;;;;;5017156;28;20218;-72
2023/01/04 14:38:18;;;;;;;7.60;5.03;;;;;;;;;;5041350;28;20194;-72
2023/01/04 14:40:45;;;;;;;4.23;2.73;;;;;;;;;;5041616;28;20991;-72
2023/01/04 14:43:30;;;;;;;4.03;2.50;;;;;;;;;;5035843;28;20218;-72
2023/01/04 14:45:56;;;;;;;3.87;2.60;;;;;;;;;;5042117;28;20331;-72
2023/01/04 14:48:23;;;;;;;3.57;2.50;;;;;;;;;;5039028;28;20191;-72
2023/01/04 14:50:49;;;;;;;3.37;2.47;;;;;;;;;;5039696;28;20270;-72
2023/01/04 14:53:17;;;;;;;3.60;2.10;;;;;;;;;;5042539;28;20752;-72
2023/01/04 14:55:43;;;;;;;5.20;2.13;;;;;;;;;;5036991;28;20214;-72
2023/01/04 14:58:10;;;;;;;3.77;1.97;;;;;;;;;;5043509;28;20186;-73
2023/01/04 15:00:36;;;;;;;2.70;1.90;;;;;;;;;;5038536;28;20597;-72
2023/01/04 15:03:02;;;;;;;2.50;2.10;;;;;;;;;;5040408;28;20680;-72
2023/01/04 15:05:28;;;;;;;2.53;1.90;;;;;;;;;;5039260;28;20210;-72
2023/01/04 15:07:54;;;;;;;4.40;2.13;;;;;;;;;;5037592;28;20205;-73
2023/01/04 15:10:22;;;;;;;3.10;2.17;;;;;;;;;;5047094;28;20182;-72
2023/01/04 15:12:48;;;;;;;3.60;2.23;;;;;;;;;;5040114;28;20185;-76
2023/01/04 15:15:14;;;;;;;3.47;2.27;;;;;;;;;;5034962;28;20217;-75
2023/01/04 15:17:40;;;;;;;3.60;2.10;;;;;;;;;;5045723;28;20184;-75
2023/01/04 15:20:07;;;;;;;2.63;2.00;;;;;;;;;;5042271;28;20678;-76
2023/01/04 15:22:33;;;;;;;4.90;2.30;;;;;;;;;;5043550;28;20232;-75
2023/01/04 15:24:59;;;;;;;4.33;2.10;;;;;;;;;;5042650;28;20572;-74
2023/01/04 15:27:25;;;;;;;4.27;2.10;;;;;;;;;;5024852;28;20505;-74
2023/01/04 15:29:51;;;;;;;5.50;3.00;;;;;;;;;;5041535;28;20261;-75
2023/01/04 15:32:17;;;;;;;3.33;2.23;;;;;;;;;;5043069;28;20177;-73
2023/01/04 15:34:43;;;;;;;3.27;2.10;;;;;;;;;;5035675;28;20186;-73